createdAt,value
2022-12-20T00:01:09.070Z,3.53
2022-12-20T00:03:36.324Z,3.63
2022-12-20T00:06:03.752Z,3.72
2022-12-20T00:08:30.904Z,3.45
2022-12-20T00:11:01.272Z,3.55
2022-12-20T00:13:28.272Z,3.67
2022-12-20T00:16:09.682Z,3.60
2022-12-20T00:18:37.690Z,3.70
2022-12-20T00:21:06.009Z,3.85
2022-12-20T00:23:33.447Z,3.40
2022-12-20T00:26:05.809Z,3.53
2022-12-20T00:28:33.818Z,4.03
2022-12-20T00:31:01.436Z,3.55
2022-12-20T00:33:28.828Z,3.22
2022-12-20T00:35:57.180Z,3.25
2022-12-20T00:38:25.464Z,4.05
2022-12-20T00:41:01.574Z,3.65
2022-12-20T00:43:29.062Z,3.22
2022-12-20T00:45:56.330Z,3.25
2022-12-20T00:48:23.567Z,3.22
2022-12-20T00:50:50.756Z,3.50
2022-12-20T00:53:22.686Z,3.58
2022-12-20T00:55:53.048Z,3.40
2022-12-20T00:58:20.098Z,3.05
2022-12-20T01:00:53.894Z,3.13
2022-12-20T01:03:23.299Z,2.88
2022-12-20T01:05:59.358Z,2.88
2022-12-20T01:08:28.156Z,3.10
2022-12-20T01:11:13.581Z,2.75
2022-12-20T01:13:43.835Z,3.25
2022-12-20T01:16:24.201Z,2.90
2022-12-20T01:18:53.172Z,3.30
2022-12-20T01:21:22.652Z,2.95
2022-12-20T01:23:49.969Z,3.22
2022-12-20T01:26:20.306Z,2.50
2022-12-20T01:28:48.743Z,2.85
2022-12-20T01:31:18.803Z,2.92
2022-12-20T01:33:47.153Z,2.90
2022-12-20T01:36:27.349Z,3.05
2022-12-20T01:39:02.153Z,3.33
2022-12-20T01:41:30.955Z,2.80
2022-12-20T01:43:59.018Z,2.80
2022-12-20T01:46:28.320Z,3.30
2022-12-20T01:49:13.358Z,2.78
2022-12-20T01:51:44.701Z,2.55
2022-12-20T01:54:15.147Z,3.13
2022-12-20T01:56:46.820Z,2.85
2022-12-20T01:59:14.134Z,2.95
2022-12-20T02:01:43.311Z,2.60
2022-12-20T02:04:10.653Z,3.03
2022-12-20T02:06:37.483Z,3.47
2022-12-20T02:09:05.529Z,2.70
2022-12-20T02:11:32.349Z,2.47
2022-12-20T02:14:08.325Z,3.03
2022-12-20T02:16:43.906Z,2.75
2022-12-20T02:19:37.327Z,2.17
2022-12-20T02:22:30.205Z,2.65
2022-12-20T02:25:05.037Z,3.00
2022-12-20T02:28:00.182Z,2.70
2022-12-20T02:30:39.022Z,3.50
2022-12-20T02:33:10.454Z,2.80
2022-12-20T02:35:39.807Z,2.25
2022-12-20T02:38:28.378Z,3.20
2022-12-20T02:41:18.284Z,2.72
2022-12-20T02:44:07.816Z,2.95
2022-12-20T02:46:36.226Z,2.53
2022-12-20T02:49:09.059Z,2.90
2022-12-20T02:51:36.348Z,2.67
2022-12-20T02:54:03.667Z,3.50
2022-12-20T02:56:30.605Z,2.90
2022-12-20T02:59:01.712Z,2.78
2022-12-20T03:01:33.743Z,2.88
2022-12-20T03:04:01.357Z,2.88
2022-12-20T03:06:29.650Z,2.95
2022-12-20T03:08:56.620Z,3.17
2022-12-20T03:11:23.501Z,2.95
2022-12-20T03:13:50.635Z,2.53
2022-12-20T03:16:17.536Z,3.15
2022-12-20T03:18:46.046Z,3.17
2022-12-20T03:21:13.092Z,2.75
2022-12-20T03:23:39.961Z,2.63
2022-12-20T03:26:06.805Z,3.42
2022-12-20T03:28:33.637Z,2.90
2022-12-20T03:31:00.464Z,3.20
2022-12-20T03:33:27.327Z,3.10
2022-12-20T03:35:54.156Z,3.05
2022-12-20T03:38:20.981Z,2.90
2022-12-20T03:40:47.757Z,3.70
2022-12-20T03:43:14.609Z,3.53
2022-12-20T03:45:41.373Z,3.28
2022-12-20T03:48:08.196Z,3.42
2022-12-20T03:50:36.703Z,3.72
2022-12-20T03:53:03.629Z,3.88
2022-12-20T03:55:30.577Z,3.88
2022-12-20T03:57:57.407Z,4.18
2022-12-20T04:00:24.609Z,4.22
2022-12-20T04:02:52.500Z,3.63
2022-12-20T04:05:19.538Z,4.28
2022-12-20T04:07:46.407Z,3.45
2022-12-20T04:10:13.586Z,3.85
2022-12-20T04:12:40.436Z,3.95
2022-12-20T04:15:08.173Z,4.10
2022-12-20T04:17:35.078Z,3.08
2022-12-20T04:20:19.056Z,4.55
2022-12-20T04:22:50.225Z,4.10
2022-12-20T04:25:20.215Z,4.43
2022-12-20T04:27:47.209Z,4.07
2022-12-20T04:30:14.367Z,3.60
2022-12-20T04:32:41.136Z,3.70
2022-12-20T04:35:08.558Z,4.28
2022-12-20T04:37:35.589Z,3.70
2022-12-20T04:40:02.617Z,3.90
2022-12-20T04:42:29.420Z,4.28
2022-12-20T04:44:56.250Z,4.28
2022-12-20T04:47:23.089Z,3.58
2022-12-20T04:49:49.880Z,4.35
2022-12-20T04:52:35.260Z,4.18
2022-12-20T04:55:02.142Z,4.00
2022-12-20T04:57:28.970Z,4.05
2022-12-20T04:59:55.776Z,3.75
2022-12-20T05:02:22.741Z,3.40
2022-12-20T05:04:49.629Z,3.80
2022-12-20T05:07:16.525Z,4.15
2022-12-20T05:09:43.317Z,3.45
2022-12-20T05:12:10.147Z,3.53
2022-12-20T05:14:36.912Z,3.72
2022-12-20T05:17:03.814Z,3.00
2022-12-20T05:19:30.644Z,3.42
2022-12-20T05:22:15.728Z,3.53
2022-12-20T05:25:01.029Z,3.30
2022-12-20T05:27:27.926Z,3.78
2022-12-20T05:29:54.783Z,3.20
2022-12-20T05:32:21.761Z,3.63
2022-12-20T05:34:48.552Z,2.72
2022-12-20T05:37:15.376Z,2.72
2022-12-20T05:39:42.294Z,2.85
2022-12-20T05:42:10.367Z,3.58
2022-12-20T05:44:37.178Z,4.32
2022-12-20T05:47:04.075Z,3.55
2022-12-20T05:49:30.971Z,3.33
2022-12-20T05:51:57.792Z,3.28
2022-12-20T05:54:25.508Z,2.95
2022-12-20T05:56:52.516Z,3.45
2022-12-20T05:59:19.593Z,2.80
2022-12-20T06:01:46.518Z,3.10
2022-12-20T06:04:13.464Z,2.95
2022-12-20T06:06:40.334Z,3.08
2022-12-20T06:09:07.426Z,2.30
2022-12-20T06:11:34.213Z,2.80
2022-12-20T06:14:01.034Z,3.08
2022-12-20T06:16:27.963Z,3.38
2022-12-20T06:18:55.014Z,3.10
2022-12-20T06:21:21.887Z,3.00
2022-12-20T06:23:48.763Z,3.22
2022-12-20T06:26:15.634Z,2.75
2022-12-20T06:28:46.034Z,2.85
2022-12-20T06:31:12.918Z,2.63
2022-12-20T06:33:39.886Z,2.83
2022-12-20T06:36:06.992Z,3.38
2022-12-20T06:38:33.865Z,2.95
2022-12-20T06:41:00.827Z,2.35
2022-12-20T06:43:27.636Z,3.08
2022-12-20T06:45:54.696Z,3.40
2022-12-20T06:48:21.574Z,2.72
2022-12-20T06:50:55.643Z,2.50
2022-12-20T06:53:23.082Z,3.97
2022-12-20T06:55:50.792Z,3.90
2022-12-20T06:58:18.593Z,3.38
2022-12-20T07:00:45.455Z,3.45
2022-12-20T07:03:12.830Z,3.40
2022-12-20T07:05:40.667Z,3.67
2022-12-20T07:08:08.464Z,3.97
2022-12-20T07:10:36.761Z,3.60
2022-12-20T07:13:03.835Z,3.95
2022-12-20T07:15:31.205Z,4.25
2022-12-20T07:17:59.571Z,3.72
2022-12-20T07:20:26.457Z,3.80
2022-12-20T07:22:53.332Z,4.20
2022-12-20T07:25:20.307Z,3.60
2022-12-20T07:27:50.206Z,3.88
2022-12-20T07:30:19.271Z,4.53
2022-12-20T07:32:46.720Z,4.63
2022-12-20T07:35:14.497Z,4.47
2022-12-20T07:37:41.469Z,4.53
2022-12-20T07:40:09.141Z,5.10
2022-12-20T07:42:38.995Z,5.03
2022-12-20T07:45:08.928Z,5.10
2022-12-20T07:47:35.951Z,4.43
2022-12-20T07:50:03.499Z,4.53
2022-12-20T07:52:33.608Z,5.18
2022-12-20T07:55:03.058Z,5.50
2022-12-20T07:57:45.226Z,5.72
2022-12-20T08:00:13.412Z,5.20
2022-12-20T08:03:03.693Z,5.03
2022-12-20T08:05:31.068Z,4.93
2022-12-20T08:07:59.985Z,4.22
2022-12-20T08:10:31.107Z,4.88
2022-12-20T08:12:59.098Z,4.30
2022-12-20T08:15:27.953Z,3.83
2022-12-20T08:17:54.735Z,3.38
2022-12-20T08:20:21.782Z,2.97
2022-12-20T08:22:48.774Z,3.90
2022-12-20T08:25:15.948Z,3.47
2022-12-20T08:27:42.797Z,3.00
2022-12-20T08:30:10.842Z,3.58
2022-12-20T08:32:38.275Z,2.90
2022-12-20T08:35:05.872Z,2.58
2022-12-20T08:37:33.037Z,3.60
2022-12-20T08:40:00.908Z,2.80
2022-12-20T08:42:28.314Z,2.70
2022-12-20T08:44:55.968Z,2.55
2022-12-20T08:47:22.895Z,2.88
2022-12-20T08:49:49.663Z,3.03
2022-12-20T08:52:16.470Z,2.55
2022-12-20T08:54:43.490Z,2.95
2022-12-20T08:57:10.383Z,2.40
2022-12-20T08:59:37.283Z,2.47
2022-12-20T09:02:04.437Z,2.65
2022-12-20T09:04:31.416Z,2.83
2022-12-20T09:06:58.281Z,2.70
2022-12-20T09:09:25.113Z,2.40
2022-12-20T09:11:51.949Z,2.50
2022-12-20T09:14:18.915Z,3.10
2022-12-20T09:16:48.408Z,3.30
2022-12-20T09:19:15.406Z,2.92
2022-12-20T09:21:42.331Z,3.00
2022-12-20T09:24:09.907Z,2.50
2022-12-20T09:26:36.999Z,3.55
2022-12-20T09:29:05.324Z,2.63
2022-12-20T09:31:32.273Z,2.40
2022-12-20T09:34:01.149Z,2.78
2022-12-20T09:36:29.469Z,2.88
2022-12-20T09:38:56.773Z,3.00
2022-12-20T09:41:38.364Z,3.30
2022-12-20T09:44:15.744Z,2.83
2022-12-20T09:46:44.325Z,3.00
2022-12-20T09:49:17.585Z,3.08
2022-12-20T09:54:31.496Z,2.80
2022-12-20T09:57:32.213Z,2.90
2022-12-20T09:59:59.010Z,2.65
2022-12-20T10:02:58.855Z,4.13
2022-12-20T10:05:40.556Z,3.13
2022-12-20T10:08:24.321Z,3.50
2022-12-20T10:11:05.131Z,3.00
2022-12-20T10:13:56.605Z,3.35
2022-12-20T10:16:50.773Z,3.50
2022-12-20T10:19:40.336Z,3.63
2022-12-20T10:22:18.906Z,3.63
2022-12-20T10:24:52.667Z,4.18
2022-12-20T10:27:20.858Z,4.45
2022-12-20T10:29:50.603Z,3.72
2022-12-20T10:32:23.640Z,3.90
2022-12-20T10:35:20.155Z,4.35
2022-12-20T10:38:08.720Z,3.95
2022-12-20T10:41:19.994Z,3.85
2022-12-20T10:43:47.901Z,4.75
2022-12-20T10:46:16.911Z,4.45
2022-12-20T10:48:46.003Z,4.18
2022-12-20T10:51:17.290Z,4.43
2022-12-20T10:54:01.300Z,4.45
2022-12-20T10:56:36.590Z,4.82
2022-12-20T10:59:15.866Z,4.88
2022-12-20T11:01:45.875Z,4.93
2022-12-20T11:04:29.928Z,5.25
2022-12-20T11:06:58.120Z,4.60
2022-12-20T11:09:38.216Z,4.28
2022-12-20T11:12:14.412Z,3.97
2022-12-20T11:14:43.473Z,4.68
2022-12-20T11:17:36.023Z,4.93
2022-12-20T11:20:24.457Z,4.13
2022-12-20T11:23:06.443Z,4.03
2022-12-20T11:26:04.851Z,4.35
2022-12-20T11:28:47.336Z,4.25
2022-12-20T11:31:25.605Z,3.53
2022-12-20T11:34:10.646Z,5.32
2022-12-20T11:37:14.937Z,4.50
2022-12-20T11:39:47.790Z,3.85
2022-12-20T11:42:37.978Z,3.88
2022-12-20T11:45:20.018Z,4.20
2022-12-20T11:48:18.299Z,4.13
2022-12-20T11:50:58.725Z,4.13
2022-12-20T11:53:35.890Z,4.13
2022-12-20T11:56:11.289Z,4.53
2022-12-20T11:58:46.403Z,4.70
2022-12-20T12:01:27.535Z,4.78
2022-12-20T12:04:25.718Z,4.47
2022-12-20T12:06:59.594Z,4.50
2022-12-20T12:09:51.439Z,4.53
2022-12-20T12:12:24.060Z,4.45
2022-12-20T12:14:56.818Z,4.05
2022-12-20T12:17:35.368Z,5.00
2022-12-20T12:20:22.374Z,4.45
2022-12-20T12:22:53.521Z,4.70
2022-12-20T12:25:20.480Z,4.70
2022-12-20T12:27:47.374Z,5.18
2022-12-20T12:30:16.050Z,4.95
2022-12-20T12:32:54.477Z,4.90
2022-12-20T12:35:41.121Z,4.78
2022-12-20T12:38:23.117Z,4.57
2022-12-20T12:41:31.749Z,5.05
2022-12-20T12:44:32.732Z,5.53
2022-12-20T12:47:05.575Z,4.60
2022-12-20T12:49:33.697Z,6.00
2022-12-20T12:52:02.828Z,5.50
2022-12-20T12:54:35.077Z,5.53
2022-12-20T12:57:23.462Z,5.30
2022-12-20T12:59:52.160Z,5.32
2022-12-20T13:02:21.045Z,5.45
2022-12-20T13:05:00.310Z,6.07
2022-12-20T13:07:36.582Z,5.93
2022-12-20T13:10:25.153Z,5.95
2022-12-20T13:12:52.658Z,5.43
2022-12-20T13:15:19.686Z,6.22
2022-12-20T13:17:46.745Z,5.78
2022-12-20T13:20:34.771Z,6.70
2022-12-20T13:23:11.575Z,5.85
2022-12-20T13:25:54.022Z,6.70
2022-12-20T13:28:23.644Z,6.30
2022-12-20T13:31:02.665Z,6.45
2022-12-20T13:33:49.570Z,6.82
2022-12-20T13:36:16.533Z,7.20
2022-12-20T13:38:46.058Z,6.65
2022-12-20T13:41:37.234Z,6.63
2022-12-20T13:44:16.213Z,6.85
2022-12-20T13:46:54.262Z,6.35
2022-12-20T13:49:26.882Z,6.07
2022-12-20T13:52:20.931Z,7.13
2022-12-20T13:54:52.770Z,7.38
2022-12-20T13:57:46.125Z,6.63
2022-12-20T14:00:22.537Z,7.50
2022-12-20T14:02:49.784Z,6.50
2022-12-20T14:05:31.110Z,7.53
2022-12-20T14:08:14.004Z,7.43
2022-12-20T14:10:40.855Z,6.57
2022-12-20T14:13:26.618Z,6.75
2022-12-20T14:15:54.399Z,7.25
2022-12-20T14:18:25.871Z,7.32
2022-12-20T14:21:01.818Z,6.85
2022-12-20T14:23:50.810Z,7.07
2022-12-20T14:26:25.242Z,7.07
2022-12-20T14:28:54.289Z,7.85
2022-12-20T14:31:38.875Z,8.10
2022-12-20T14:34:15.031Z,8.50
2022-12-20T14:36:47.350Z,8.50
2022-12-20T14:39:23.359Z,8.70
2022-12-20T14:42:13.983Z,8.18
2022-12-20T14:44:40.977Z,8.35
2022-12-20T14:47:26.726Z,8.73
2022-12-20T14:50:01.917Z,8.23
2022-12-20T14:52:37.889Z,8.50
2022-12-20T14:55:22.495Z,8.88
2022-12-20T14:57:54.711Z,8.65
2022-12-20T15:00:32.514Z,8.57
2022-12-20T15:03:18.072Z,8.13
2022-12-20T15:05:50.645Z,7.85
2022-12-20T15:08:27.971Z,8.95
2022-12-20T15:11:10.405Z,9.05
2022-12-20T15:13:37.474Z,8.95
2022-12-20T15:16:22.100Z,8.45
2022-12-20T15:18:50.636Z,8.57
2022-12-20T15:21:42.821Z,8.88
2022-12-20T15:24:14.747Z,8.35
2022-12-20T15:26:42.302Z,8.45
2022-12-20T15:29:20.707Z,8.20
2022-12-20T15:31:48.392Z,9.15
2022-12-20T15:34:32.363Z,8.48
2022-12-20T15:37:00.304Z,9.90
2022-12-20T15:39:27.919Z,9.70
2022-12-20T15:41:55.880Z,12.48
2022-12-20T15:44:25.143Z,9.63
2022-12-20T15:46:53.101Z,9.63
2022-12-20T15:49:30.270Z,10.05
2022-12-20T15:51:57.705Z,11.25
2022-12-20T15:54:33.713Z,10.10
2022-12-20T15:57:03.306Z,10.55
2022-12-20T16:02:24.757Z,10.25
2022-12-20T16:04:52.987Z,10.88
2022-12-20T16:07:20.324Z,11.93
2022-12-20T16:09:47.327Z,10.60
2022-12-20T16:12:23.188Z,11.43
2022-12-20T16:14:50.178Z,10.68
2022-12-20T16:17:17.629Z,10.75
2022-12-20T16:19:44.781Z,11.07
2022-12-20T16:22:19.474Z,11.38
2022-12-20T16:24:46.769Z,10.98
2022-12-20T16:27:38.656Z,11.40
2022-12-20T16:30:06.742Z,12.32
2022-12-20T16:32:33.684Z,12.52
2022-12-20T16:35:00.559Z,12.73
2022-12-20T16:37:27.536Z,12.55
2022-12-20T16:39:55.259Z,12.95
2022-12-20T16:42:22.298Z,12.45
2022-12-20T16:44:53.766Z,13.25
2022-12-20T16:47:21.219Z,11.98
2022-12-20T16:49:52.914Z,13.25
2022-12-20T16:52:22.455Z,13.23
2022-12-20T16:54:49.992Z,13.07
2022-12-20T16:57:16.855Z,13.25
2022-12-20T16:59:43.885Z,14.50
2022-12-20T17:02:31.284Z,14.52
2022-12-20T17:04:59.043Z,15.00
2022-12-20T17:07:26.317Z,16.40
2022-12-20T17:09:53.994Z,15.52
2022-12-20T17:12:22.825Z,17.42
2022-12-20T17:14:49.873Z,17.27
2022-12-20T17:17:17.501Z,16.63
2022-12-20T17:19:44.706Z,17.50
2022-12-20T17:25:00.650Z,17.63
2022-12-20T17:27:27.609Z,17.77
2022-12-20T17:29:54.768Z,16.92
2022-12-20T17:32:25.611Z,17.52
2022-12-20T17:34:53.312Z,17.70
2022-12-20T17:37:21.607Z,18.40
2022-12-20T17:39:49.064Z,18.15
2022-12-20T17:42:18.307Z,18.08
2022-12-20T17:44:46.542Z,17.60
2022-12-20T17:47:13.640Z,17.80
2022-12-20T17:49:40.503Z,17.77
2022-12-20T17:52:13.610Z,18.15
2022-12-20T17:57:16.531Z,17.13
2022-12-20T17:59:43.820Z,17.80
2022-12-20T18:02:24.121Z,18.15
2022-12-20T18:04:51.890Z,18.25
2022-12-20T18:07:19.144Z,17.58
2022-12-20T18:09:49.507Z,17.00
2022-12-20T18:12:17.842Z,16.98
2022-12-20T18:14:45.220Z,18.27
2022-12-20T18:17:13.915Z,17.95
2022-12-20T18:19:41.025Z,15.57
2022-12-20T18:22:07.927Z,17.40
2022-12-20T18:24:35.042Z,17.23
2022-12-20T18:27:01.879Z,15.90
2022-12-20T18:29:29.738Z,15.73
2022-12-20T18:31:56.944Z,17.35
2022-12-20T18:34:26.649Z,16.95
2022-12-20T18:36:53.511Z,18.13
2022-12-20T18:39:20.363Z,16.02
2022-12-20T18:41:48.406Z,17.48
2022-12-20T18:44:15.433Z,18.55
2022-12-20T18:46:42.220Z,17.88
2022-12-20T18:49:09.555Z,17.38
2022-12-20T18:51:37.026Z,18.05
2022-12-20T18:54:05.930Z,17.63
2022-12-20T18:56:35.416Z,18.05
2022-12-20T18:59:10.236Z,18.58
2022-12-20T19:01:38.704Z,20.80
2022-12-20T19:04:07.333Z,19.63
2022-12-20T19:06:35.195Z,19.27
2022-12-20T19:09:03.874Z,18.80
2022-12-20T19:11:30.859Z,19.10
2022-12-20T19:13:57.813Z,19.42
2022-12-20T19:16:32.190Z,20.02
2022-12-20T19:19:00.135Z,20.00
2022-12-20T19:21:29.711Z,20.33
2022-12-20T19:23:59.414Z,21.42
2022-12-20T19:26:27.928Z,20.25
2022-12-20T19:28:57.802Z,22.80
2022-12-20T19:31:27.337Z,23.73
2022-12-20T19:33:56.985Z,20.92
2022-12-20T19:36:26.871Z,20.48
2022-12-20T19:38:56.496Z,22.73
2022-12-20T19:41:25.608Z,23.85
2022-12-20T19:43:52.896Z,23.88
2022-12-20T19:46:27.930Z,22.73
2022-12-20T19:48:56.805Z,23.70
2022-12-20T19:51:24.891Z,22.08
2022-12-20T19:53:53.718Z,23.80
2022-12-20T19:56:26.618Z,21.90
2022-12-20T19:58:55.206Z,21.88
2022-12-20T20:01:25.829Z,21.77
2022-12-20T20:03:54.427Z,23.30
2022-12-20T20:06:22.377Z,23.08
2022-12-20T20:08:50.896Z,22.15
2022-12-20T20:11:19.168Z,23.02
2022-12-20T20:13:46.781Z,22.55
2022-12-20T20:16:18.476Z,21.27
2022-12-20T20:18:47.256Z,21.60
2022-12-20T20:21:17.953Z,23.13
2022-12-20T20:23:45.102Z,23.40
2022-12-20T20:26:20.574Z,25.45
2022-12-20T20:28:47.596Z,22.52
2022-12-20T20:31:16.345Z,24.38
2022-12-20T20:33:44.364Z,23.55
2022-12-20T20:36:14.843Z,23.67
2022-12-20T20:38:41.793Z,24.08
2022-12-20T20:41:09.150Z,24.65
2022-12-20T20:43:40.249Z,25.02
2022-12-20T20:46:09.119Z,24.23
2022-12-20T20:48:36.509Z,24.73
2022-12-20T20:51:04.437Z,24.77
2022-12-20T20:53:34.203Z,27.83
2022-12-20T20:56:06.220Z,23.50
2022-12-20T20:58:34.659Z,25.55
2022-12-20T21:01:03.037Z,25.20
2022-12-20T21:03:30.975Z,25.77
2022-12-20T21:08:45.439Z,25.65
2022-12-20T21:11:12.952Z,25.42
2022-12-20T21:13:40.055Z,25.08
2022-12-20T21:16:13.349Z,24.23
2022-12-20T21:18:40.341Z,23.85
2022-12-20T21:21:12.541Z,27.08
2022-12-20T21:23:45.734Z,25.60
2022-12-20T21:28:40.665Z,26.27
2022-12-20T21:31:11.716Z,26.20
2022-12-20T21:33:39.097Z,27.88
2022-12-20T21:36:08.454Z,25.73
2022-12-20T21:38:35.422Z,30.48
2022-12-20T21:41:12.338Z,29.30
2022-12-20T21:43:39.503Z,25.90
2022-12-20T21:46:11.214Z,24.92
2022-12-20T21:48:43.121Z,30.23
2022-12-20T21:51:15.971Z,30.63
2022-12-20T21:53:48.438Z,25.65
2022-12-20T21:56:16.011Z,32.47
2022-12-20T21:58:43.236Z,34.85
2022-12-20T22:01:14.016Z,31.63
2022-12-20T22:03:41.428Z,33.20
2022-12-20T22:06:08.386Z,35.20
2022-12-20T22:08:35.269Z,37.22
2022-12-20T22:11:08.199Z,33.92
2022-12-20T22:13:41.141Z,28.63
2022-12-20T22:16:10.882Z,32.45
2022-12-20T22:18:38.497Z,33.50
2022-12-20T22:21:06.804Z,33.20
2022-12-20T22:23:33.883Z,33.15
2022-12-20T22:26:05.653Z,32.55
2022-12-20T22:28:32.690Z,30.98
2022-12-20T22:30:59.636Z,32.55
2022-12-20T22:33:26.493Z,33.95
2022-12-20T22:35:53.530Z,34.50
2022-12-20T22:38:20.400Z,39.03
2022-12-20T22:40:47.225Z,31.85
2022-12-20T22:43:14.238Z,38.17
2022-12-20T22:45:41.192Z,34.90
2022-12-20T22:48:07.999Z,32.53
2022-12-20T22:50:34.832Z,36.78
2022-12-20T22:53:01.801Z,36.42
2022-12-20T22:55:28.565Z,40.42
2022-12-20T22:57:55.402Z,38.13
2022-12-20T23:00:22.242Z,42.80
2022-12-20T23:02:49.447Z,37.88
2022-12-20T23:05:16.465Z,38.10
2022-12-20T23:07:43.313Z,38.00
2022-12-20T23:10:30.500Z,37.55
2022-12-20T23:13:15.972Z,39.45
2022-12-20T23:15:42.983Z,38.53
2022-12-20T23:18:09.834Z,50.38
2022-12-20T23:20:55.182Z,38.30
2022-12-20T23:23:22.043Z,38.63
2022-12-20T23:25:48.881Z,41.88
2022-12-20T23:28:16.147Z,45.10
2022-12-20T23:30:42.969Z,43.42
2022-12-20T23:33:09.749Z,49.45
2022-12-20T23:35:36.572Z,41.25
2022-12-20T23:38:03.696Z,43.40
2022-12-20T23:40:30.510Z,46.28
2022-12-20T23:42:57.313Z,46.65
2022-12-20T23:45:24.158Z,39.65
2022-12-20T23:47:53.763Z,43.00
2022-12-20T23:50:20.675Z,42.67
2022-12-20T23:52:47.481Z,45.47
2022-12-20T23:55:14.421Z,37.13
2022-12-20T23:57:41.341Z,37.53
